Time;durP1;ratioP1;P1;durP2;ratioP2;P2;SDS_P1;SDS_P2;PMS_P1;PMS_P2;Temp;Humidity;BMP_temperature;BMP_pressure;BME280_temperature;BME280_humidity;BME280_pressure;Samples;Min_cycle;Max_cycle;Signal;HPM_P1;HPM_P2
2022/09/24 00:00:03;;;;;;;7.68;6.10;;;;;;;10.36;71.58;100877.31;7397399;19;20541;-68
2022/09/24 00:02:32;;;;;;;6.90;5.70;;;;;;;10.35;71.68;100876.41;7396909;19;20014;-67
2022/09/24 00:05:00;;;;;;;9.40;6.30;;;;;;;10.35;71.81;100876.41;7396446;19;20427;-68
2022/09/24 00:07:29;;;;;;;10.02;6.55;;;;;;;10.34;72.10;100871.22;7396979;19;20027;-68
2022/09/24 00:09:57;;;;;;;9.02;6.13;;;;;;;10.33;72.23;100870.31;7396794;19;20077;-67
2022/09/24 00:12:26;;;;;;;6.00;5.40;;;;;;;10.32;72.34;100867.72;7397889;19;20492;-70
2022/09/24 00:14:57;;;;;;;7.60;6.35;;;;;;;10.32;72.43;100867.72;7398877;19;20014;-67
2022/09/24 00:17:26;;;;;;;7.32;6.45;;;;;;;10.30;72.60;100864.25;7399284;19;20024;-67
2022/09/24 00:19:54;;;;;;;6.88;5.90;;;;;;;10.30;72.46;100861.66;7396946;19;20477;-68
2022/09/24 00:22:23;;;;;;;8.50;6.75;;;;;;;10.29;72.58;100863.41;7398323;19;20528;-70
2022/09/24 00:27:32;;;;;;;10.90;6.80;;;;;;;10.28;72.89;100862.53;7397052;19;20029;-70
2022/09/24 00:30:25;;;;;;;12.95;7.25;;;;;;;10.27;72.97;100855.59;7396748;19;20010;-67
2022/09/24 00:32:53;;;;;;;10.85;8.27;;;;;;;10.23;73.17;100848.66;7398031;19;20018;-67
2022/09/24 00:35:22;;;;;;;44.15;24.10;;;;;;;10.26;73.29;100851.22;7396128;19;20031;-67
2022/09/24 00:37:57;;;;;;;26.73;15.05;;;;;;;10.25;73.37;100848.63;7397680;19;20484;-67
2022/09/24 00:40:29;;;;;;;13.52;9.13;;;;;;;10.25;73.45;100844.25;7396032;19;20018;-67
2022/09/24 00:42:58;;;;;;;8.95;6.93;;;;;;;10.25;73.40;100832.91;7397992;19;20481;-68
2022/09/24 00:45:38;;;;;;;11.95;8.10;;;;;;;10.26;73.38;100837.22;7395677;19;20082;-71
2022/09/24 00:48:07;;;;;;;7.88;6.63;;;;;;;10.25;73.27;100828.50;7397506;19;20529;-68
2022/09/24 00:50:36;;;;;;;7.32;6.40;;;;;;;10.24;73.38;100829.41;7396521;19;20470;-66
2022/09/24 00:53:10;;;;;;;6.60;5.90;;;;;;;10.24;73.45;100825.94;7396053;19;20019;-67
2022/09/24 00:55:41;;;;;;;;;;;;;;;10.24;73.29;100821.53;7398802;19;20045;-67
2022/09/24 00:58:10;;;;;;;10.82;7.25;;;;;;;10.24;73.23;100818.91;7397911;19;19922;-67
2022/09/24 01:00:44;;;;;;;8.45;7.18;;;;;;;10.24;73.24;100815.44;7395571;19;20023;-66
2022/09/24 01:03:15;;;;;;;9.20;6.72;;;;;;;10.25;73.30;100819.78;7397628;19;20020;-67
2022/09/24 01:05:44;;;;;;;9.93;7.40;;;;;;;10.26;73.17;100813.63;7395820;19;20035;-66
2022/09/24 01:08:15;;;;;;;8.00;6.38;;;;;;;10.26;73.20;100817.13;7395295;19;20031;-67
2022/09/24 01:10:57;;;;;;;9.52;6.95;;;;;;;10.26;73.34;100809.28;7394959;19;20418;-67
2022/09/24 01:13:54;;;;;;;7.82;6.97;;;;;;;10.28;73.21;100802.22;7397336;19;20485;-66
2022/09/24 01:16:35;;;;;;;9.18;6.53;;;;;;;10.28;73.35;100809.22;7396422;19;20027;-67
2022/09/24 01:19:19;;;;;;;7.97;7.10;;;;;;;10.28;73.34;100804.84;7395236;19;20031;-67
2022/09/24 01:21:54;;;;;;;9.23;7.47;;;;;;;10.30;73.33;100806.56;7397109;19;20015;-67
2022/09/24 01:24:52;;;;;;;10.73;7.95;;;;;;;10.29;73.43;100797.84;7393342;19;20029;-66
2022/09/24 01:27:28;;;;;;;12.23;8.63;;;;;;;10.30;73.52;100799.59;7395805;19;20026;-71
2022/09/24 01:30:05;;;;;;;10.93;8.25;;;;;;;10.30;73.45;100796.09;7395039;19;20501;-69
2022/09/24 01:32:38;;;;;;;11.65;8.18;;;;;;;10.31;73.42;100790.81;7396807;19;20018;-66
2022/09/24 01:35:13;;;;;;;10.52;7.50;;;;;;;10.31;73.29;100803.91;7396791;19;20010;-66
2022/09/24 01:37:45;;;;;;;9.57;7.32;;;;;;;10.31;73.34;100805.69;7394802;19;20091;-66
2022/09/24 01:40:15;;;;;;;12.25;8.27;;;;;;;10.30;73.27;100802.22;7394480;19;20019;-66
2022/09/24 01:42:46;;;;;;;11.48;7.70;;;;;;;10.30;73.32;100796.97;7394413;19;20026;-66
2022/09/24 01:45:19;;;;;;;10.65;7.78;;;;;;;10.29;73.25;100795.22;7394757;19;20014;-66
2022/09/24 01:47:47;;;;;;;10.85;8.02;;;;;;;10.31;73.23;100797.81;7394723;19;20028;-66
2022/09/24 01:50:18;;;;;;;11.40;8.63;;;;;;;10.32;73.23;100792.53;7394087;19;20035;-66
2022/09/24 01:52:53;;;;;;;12.30;8.30;;;;;;;10.32;73.41;100787.28;7396173;19;20015;-66
2022/09/24 01:55:27;;;;;;;9.40;7.68;;;;;;;10.33;73.30;100788.19;7396081;19;20019;-66
2022/09/24 01:58:00;;;;;;;13.48;8.15;;;;;;;10.34;73.30;100787.28;7395688;19;20026;-66
2022/09/24 02:00:31;;;;;;;10.77;7.93;;;;;;;10.35;73.34;100787.25;7394672;19;20032;-66
2022/09/24 02:03:07;;;;;;;12.48;8.23;;;;;;;10.36;73.38;100788.13;7393386;19;20015;-66
2022/09/24 02:05:41;;;;;;;11.73;8.02;;;;;;;10.36;73.32;100788.13;7393561;19;20368;-66
2022/09/24 02:08:14;;;;;;;8.93;7.72;;;;;;;10.37;73.27;100782.00;7394081;19;20032;-65
2022/09/24 02:10:49;;;;;;;8.57;7.67;;;;;;;10.37;73.34;100784.63;7393713;19;20018;-65
2022/09/24 02:13:23;;;;;;;7.90;7.07;;;;;;;10.37;73.29;100787.25;7395281;19;20028;-68
2022/09/24 02:16:00;;;;;;;7.68;6.80;;;;;;;10.37;73.46;100776.75;7393805;19;20087;-67
2022/09/24 02:18:34;;;;;;;8.82;6.53;;;;;;;10.36;73.08;100783.78;7394757;19;20015;-66
2022/09/24 02:21:08;;;;;;;11.98;7.90;;;;;;;10.36;73.20;100778.53;7393470;19;20039;-66
2022/09/24 02:23:40;;;;;;;9.30;8.27;;;;;;;10.32;73.32;100778.56;7395443;19;20022;-66
2022/09/24 02:26:09;;;;;;;8.85;7.40;;;;;;;10.35;73.56;100781.13;7395269;19;20039;-67
2022/09/24 02:28:38;;;;;;;10.55;7.68;;;;;;;10.33;73.45;100781.16;7394479;19;20074;-65
2022/09/24 02:31:13;;;;;;;9.48;8.07;;;;;;;10.31;73.33;100776.84;7394590;19;20022;-67
2022/09/24 02:36:28;;;;;;;8.95;7.60;;;;;;;10.27;73.43;100776.03;7399597;19;20006;-67
2022/09/24 02:38:56;;;;;;;7.90;7.10;;;;;;;10.26;73.57;100775.19;7400995;19;20022;-67
2022/09/24 02:41:26;;;;;;;10.13;8.05;;;;;;;10.26;73.52;100771.69;7402049;19;20015;-66
2022/09/24 02:43:55;;;;;;;10.25;7.75;;;;;;;10.25;73.57;100772.59;7401516;19;20015;-66
2022/09/24 02:46:26;;;;;;;9.30;7.53;;;;;;;10.25;73.47;100772.59;7400290;19;20488;-67
2022/09/24 02:48:55;;;;;;;10.38;7.60;;;;;;;10.24;73.51;100776.09;7401358;19;20019;-67
2022/09/24 02:51:24;;;;;;;9.48;7.65;;;;;;;10.23;73.64;100772.59;7398878;19;20020;-67
2022/09/24 02:53:52;;;;;;;8.60;7.50;;;;;;;10.22;73.53;100773.53;7401468;19;20369;-66
2022/09/24 02:56:21;;;;;;;10.95;8.60;;;;;;;10.22;73.56;100772.63;7398787;19;20035;-66
2022/09/24 02:58:49;;;;;;;9.93;8.35;;;;;;;10.20;73.73;100770.06;7398221;19;20427;-67
2022/09/24 03:01:18;;;;;;;11.80;7.82;;;;;;;10.19;73.75;100757.84;7401028;19;20023;-67
2022/09/24 03:03:49;;;;;;;8.63;7.72;;;;;;;10.18;73.80;100758.72;7398612;19;20027;-67
2022/09/24 03:06:18;;;;;;;10.38;9.05;;;;;;;10.17;73.74;100759.63;7400707;19;20015;-67
2022/09/24 03:08:46;;;;;;;10.77;8.90;;;;;;;10.16;73.90;100754.41;7400179;19;20042;-67
2022/09/24 03:11:16;;;;;;;9.93;8.30;;;;;;;10.15;74.13;100753.56;7400685;19;20086;-67
2022/09/24 03:13:44;;;;;;;9.95;7.95;;;;;;;10.13;74.08;100757.94;7400939;19;20018;-67
2022/09/24 03:16:13;;;;;;;9.60;8.40;;;;;;;10.13;74.07;100749.25;7400990;19;20090;-66
2022/09/24 03:18:41;;;;;;;8.93;7.75;;;;;;;10.12;74.16;100745.72;7400470;19;20027;-67
2022/09/24 03:21:14;;;;;;;9.60;7.93;;;;;;;10.10;74.14;100751.00;7400812;19;20078;-67
2022/09/24 03:23:43;;;;;;;14.65;8.23;;;;;;;10.10;74.24;100752.78;7398130;19;20090;-66
2022/09/24 03:26:11;;;;;;;9.52;8.45;;;;;;;10.08;74.30;100752.81;7397885;19;20036;-66
2022/09/24 03:28:40;;;;;;;9.25;8.18;;;;;;;10.08;74.23;100741.47;7397564;19;20476;-67
2022/09/24 03:31:09;;;;;;;10.18;8.07;;;;;;;10.06;74.23;100743.22;7397974;19;20082;-66
2022/09/24 03:33:40;;;;;;;10.70;8.38;;;;;;;10.04;74.22;100739.78;7400244;19;20015;-66
2022/09/24 03:36:14;;;;;;;9.38;8.38;;;;;;;10.05;74.33;100736.28;7397370;19;20420;-66
2022/09/24 03:38:44;;;;;;;10.18;8.27;;;;;;;10.04;74.38;100742.41;7399389;19;20078;-66
2022/09/24 03:41:14;;;;;;;11.55;8.40;;;;;;;10.03;74.29;100735.44;7400124;19;20026;-67
2022/09/24 03:43:43;;;;;;;10.27;7.97;;;;;;;10.02;74.36;100736.31;7397051;19;20375;-66
2022/09/24 03:46:14;;;;;;;8.27;7.32;;;;;;;10.01;74.35;100732.84;7399271;19;20022;-67
2022/09/24 03:48:50;;;;;;;9.63;7.95;;;;;;;10.01;74.47;100729.34;7396596;19;20018;-66
2022/09/24 03:51:21;;;;;;;9.77;8.77;;;;;;;9.98;74.46;100722.41;7399727;19;20006;-67
2022/09/24 03:53:50;;;;;;;8.98;7.82;;;;;;;9.98;74.46;100729.44;7396942;19;20428;-67
2022/09/24 03:56:19;;;;;;;9.80;8.00;;;;;;;9.98;74.46;100726.81;7399385;19;20082;-67
2022/09/24 03:58:47;;;;;;;9.27;7.93;;;;;;;9.97;74.49;100722.44;7399273;19;20022;-67
2022/09/24 04:01:20;;;;;;;11.80;8.38;;;;;;;9.96;74.52;100711.13;7399388;19;20010;-67
2022/09/24 04:03:48;;;;;;;10.82;9.20;;;;;;;9.97;74.74;100719.84;7397536;19;20040;-67
2022/09/24 04:06:17;;;;;;;10.23;8.45;;;;;;;9.97;74.65;100723.34;7397054;19;20070;-67
2022/09/24 04:08:48;;;;;;;11.40;9.13;;;;;;;9.97;74.55;100725.06;7396466;19;20524;-67
2022/09/24 04:11:16;;;;;;;10.95;9.20;;;;;;;9.98;74.71;100716.31;7399582;19;20082;-67
2022/09/24 04:13:45;;;;;;;9.40;8.50;;;;;;;9.99;74.87;100720.69;7399038;19;20497;-66
2022/09/24 04:16:13;;;;;;;9.82;8.05;;;;;;;9.99;74.80;100718.06;7398982;19;20082;-67
2022/09/24 04:18:42;;;;;;;12.48;8.45;;;;;;;9.99;74.80;100723.28;7398290;19;20074;-67
2022/09/24 04:21:10;;;;;;;11.35;8.50;;;;;;;10.00;74.76;100722.41;7398653;19;20099;-66
2022/09/24 04:23:39;;;;;;;11.85;8.68;;;;;;;9.98;74.93;100719.78;7398340;19;20544;-66
2022/09/24 04:26:11;;;;;;;11.43;8.13;;;;;;;9.99;75.00;100723.28;7398420;19;20062;-67
2022/09/24 04:28:39;;;;;;;9.75;8.73;;;;;;;10.00;74.94;100725.88;7396201;19;20014;-67
2022/09/24 04:31:08;;;;;;;10.00;8.98;;;;;;;10.01;75.10;100726.72;7398428;19;20070;-67
2022/09/24 04:33:36;;;;;;;12.45;8.50;;;;;;;10.01;75.27;100729.34;7397894;19;20087;-67
2022/09/24 04:36:05;;;;;;;9.55;7.80;;;;;;;10.00;75.28;100727.66;7396038;19;20014;-66
2022/09/24 04:38:33;;;;;;;9.80;8.23;;;;;;;10.00;75.33;100722.41;7395480;19;20015;-67
2022/09/24 04:41:11;;;;;;;9.23;8.32;;;;;;;10.00;75.20;100719.78;7397672;19;20015;-66
2022/09/24 04:43:40;;;;;;;9.80;7.70;;;;;;;10.00;75.26;100720.63;7397514;19;20492;-65
2022/09/24 04:46:08;;;;;;;9.65;8.10;;;;;;;10.00;75.23;100720.63;7395732;19;20019;-67
2022/09/24 04:48:38;;;;;;;9.77;8.68;;;;;;;10.01;75.34;100717.13;7396200;19;20100;-67
2022/09/24 04:51:07;;;;;;;128.18;80.90;;;;;;;10.02;75.35;100720.59;7397392;19;20081;-66
2022/09/24 04:53:36;;;;;;;34.22;23.90;;;;;;;10.02;75.52;100715.34;7397647;19;20018;-66
2022/09/24 04:56:05;;;;;;;19.45;13.77;;;;;;;10.03;75.51;100717.09;7397993;19;20016;-66
2022/09/24 04:58:36;;;;;;;11.65;9.90;;;;;;;10.04;75.45;100711.81;7395236;19;20029;-67
2022/09/24 05:01:05;;;;;;;10.45;9.38;;;;;;;10.03;75.46;100715.31;7397536;19;20090;-66
2022/09/24 05:03:34;;;;;;;9.45;8.45;;;;;;;10.04;75.37;100711.81;7397245;19;20015;-66
2022/09/24 05:06:02;;;;;;;10.23;8.85;;;;;;;10.03;75.42;100710.06;7395119;19;20483;-66
2022/09/24 05:08:31;;;;;;;10.10;8.52;;;;;;;10.04;75.57;100710.97;7394694;19;20376;-67
2022/09/24 05:11:00;;;;;;;11.25;8.90;;;;;;;10.03;75.59;100706.59;7396985;19;20022;-66
2022/09/24 05:13:29;;;;;;;9.90;8.90;;;;;;;10.02;75.53;100702.25;7397049;19;20022;-66
2022/09/24 05:16:00;;;;;;;11.85;8.73;;;;;;;10.04;75.60;100708.34;7394831;19;20389;-66
2022/09/24 05:18:29;;;;;;;9.60;8.60;;;;;;;10.04;75.59;100700.47;7396303;19;20014;-66
2022/09/24 05:20:57;;;;;;;17.90;13.10;;;;;;;10.05;75.54;100702.22;7396445;19;20017;-66
2022/09/24 05:23:26;;;;;;;19.33;14.27;;;;;;;10.06;75.67;100706.53;7394736;19;20069;-66
2022/09/24 05:28:37;;;;;;;11.70;10.02;;;;;;;10.08;75.69;100712.63;7394986;19;20081;-67
2022/09/24 05:31:08;;;;;;;9.65;8.65;;;;;;;10.08;75.74;100713.50;7396003;19;20505;-66
2022/09/24 05:33:36;;;;;;;12.48;9.10;;;;;;;10.07;75.66;100710.88;7394740;19;20022;-66
2022/09/24 05:36:05;;;;;;;9.77;8.77;;;;;;;10.12;75.78;100724.75;7396088;19;20035;-66
2022/09/24 05:38:34;;;;;;;9.02;8.13;;;;;;;10.13;75.64;100730.88;7395891;19;20042;-67
2022/09/24 05:41:03;;;;;;;11.88;8.68;;;;;;;10.14;75.83;100730.00;7395956;19;20022;-66
2022/09/24 05:43:31;;;;;;;9.75;8.75;;;;;;;10.17;75.73;100727.31;7396221;19;20492;-66
2022/09/24 05:46:00;;;;;;;9.82;8.23;;;;;;;10.19;75.77;100734.25;7396078;19;20090;-66
2022/09/24 05:48:31;;;;;;;23.63;16.17;;;;;;;10.21;75.82;100728.97;7394704;19;20078;-66
2022/09/24 05:51:02;;;;;;;15.68;12.15;;;;;;;10.23;75.76;100728.03;7394620;19;20087;-65
2022/09/24 05:53:30;;;;;;;31.55;21.70;;;;;;;10.26;75.83;100738.47;7395762;19;20018;-65
2022/09/24 05:55:59;;;;;;;15.23;12.02;;;;;;;10.29;75.60;100734.91;7393734;19;20010;-66
2022/09/24 05:58:28;;;;;;;13.40;10.10;;;;;;;10.31;75.32;100740.13;7393595;19;20096;-66
2022/09/24 06:00:56;;;;;;;26.13;17.00;;;;;;;10.33;75.27;100731.34;7395130;19;20082;-66
2022/09/24 06:03:25;;;;;;;18.95;14.15;;;;;;;10.35;75.16;100731.28;7395483;19;20035;-66
2022/09/24 06:05:58;;;;;;;12.52;10.65;;;;;;;10.38;74.98;100736.53;7395471;19;20039;-66
2022/09/24 06:08:27;;;;;;;11.35;9.88;;;;;;;10.40;75.12;100739.97;7394155;19;20484;-66
2022/09/24 06:10:59;;;;;;;13.02;10.80;;;;;;;10.41;75.34;100732.09;7397121;19;20018;-66
2022/09/24 06:13:28;;;;;;;12.00;10.77;;;;;;;10.42;75.52;100732.94;7400000;19;20070;-66
2022/09/24 06:16:02;;;;;;;13.88;11.27;;;;;;;10.43;75.80;100732.91;7402878;19;20032;-66
2022/09/24 06:18:31;;;;;;;13.80;11.05;;;;;;;10.45;75.96;100729.38;7399427;19;20077;-67
2022/09/24 06:21:06;;;;;;;12.45;9.82;;;;;;;10.45;75.96;100738.13;7399282;19;20011;-66
2022/09/24 06:23:35;;;;;;;11.90;9.48;;;;;;;10.47;76.12;100740.72;7399507;19;20024;-66
2022/09/24 06:26:10;;;;;;;10.82;9.30;;;;;;;10.48;76.21;100742.44;7399338;19;20082;-66
2022/09/24 06:28:40;;;;;;;12.75;10.30;;;;;;;10.51;76.17;100745.00;7401091;19;20074;-66
2022/09/24 06:31:10;;;;;;;10.18;9.02;;;;;;;10.52;76.33;100737.06;7399270;19;20082;-67
2022/09/24 06:33:39;;;;;;;16.23;9.60;;;;;;;10.52;76.28;100739.69;7399809;19;20019;-66
2022/09/24 06:36:10;;;;;;;10.05;8.68;;;;;;;10.56;76.29;100746.63;7399267;19;20028;-67
2022/09/24 06:38:40;;;;;;;14.77;10.00;;;;;;;10.59;76.17;100745.69;7398762;19;20070;-67
2022/09/24 06:41:09;;;;;;;11.00;9.82;;;;;;;10.62;76.11;100739.53;7401771;19;20016;-65
2022/09/24 06:43:38;;;;;;;13.35;10.43;;;;;;;10.65;76.04;100742.06;7401864;19;20099;-66
2022/09/24 06:46:06;;;;;;;10.77;8.75;;;;;;;10.69;75.84;100741.97;7401927;19;20022;-65
2022/09/24 06:48:35;;;;;;;12.82;9.35;;;;;;;10.73;75.49;100742.78;7398596;19;20078;-67
2022/09/24 06:51:06;;;;;;;10.25;8.77;;;;;;;10.77;75.26;100747.03;7401826;19;20019;-65
2022/09/24 06:53:37;;;;;;;10.93;9.15;;;;;;;10.81;74.87;100753.94;7399302;19;20018;-66
2022/09/24 06:56:06;;;;;;;9.95;8.25;;;;;;;10.83;74.52;100744.28;7401961;19;20082;-66
2022/09/24 06:58:35;;;;;;;10.52;7.90;;;;;;;10.90;74.28;100751.09;7401310;19;20019;-66
2022/09/24 07:01:05;;;;;;;8.98;8.07;;;;;;;10.95;74.09;100752.78;7400825;19;20022;-65
2022/09/24 07:03:37;;;;;;;11.15;8.57;;;;;;;11.00;73.75;100757.00;7397939;19;20023;-66
2022/09/24 07:06:07;;;;;;;11.73;9.13;;;;;;;11.04;73.57;100748.16;7401383;19;20025;-66
2022/09/24 07:08:38;;;;;;;13.85;9.68;;;;;;;11.09;73.35;100753.31;7399846;19;20085;-67
2022/09/24 07:11:07;;;;;;;10.43;8.60;;;;;;;11.16;73.24;100754.91;7401408;19;20093;-66
2022/09/24 07:13:36;;;;;;;13.60;8.38;;;;;;;11.20;72.90;100751.28;7400761;19;20015;-66
2022/09/24 07:16:04;;;;;;;9.27;7.93;;;;;;;11.24;72.84;100747.66;7397670;19;20085;-66
2022/09/24 07:18:33;;;;;;;11.15;9.05;;;;;;;11.28;72.73;100751.09;7400386;19;20091;-67
2022/09/24 07:21:01;;;;;;;10.50;7.80;;;;;;;11.33;72.39;100754.47;7400114;19;20094;-65
2022/09/24 07:23:30;;;;;;;65.13;41.33;;;;;;;11.37;72.34;100744.75;7398997;19;20401;-65
2022/09/24 07:26:01;;;;;;;37.85;24.92;;;;;;;11.43;72.34;100755.09;7400588;19;20078;-65
2022/09/24 07:28:29;;;;;;;16.38;11.68;;;;;;;11.48;72.05;100755.84;7399680;19;20082;-66
2022/09/24 07:30:59;;;;;;;11.00;9.90;;;;;;;11.54;71.91;100757.47;7397574;19;20018;-67
2022/09/24 07:33:28;;;;;;;12.50;9.32;;;;;;;11.57;71.74;100746.88;7400624;19;20014;-66
2022/09/24 07:35:56;;;;;;;10.75;9.43;;;;;;;11.59;72.03;100752.97;7397153;19;20082;-66
2022/09/24 07:38:25;;;;;;;13.15;10.45;;;;;;;11.66;71.92;100754.50;7396902;19;20074;-65
2022/09/24 07:40:56;;;;;;;12.25;10.68;;;;;;;11.72;71.72;100758.75;7396837;19;20011;-66
2022/09/24 07:43:27;;;;;;;12.90;10.77;;;;;;;11.77;71.82;100753.38;7399492;19;20140;-66
2022/09/24 07:45:57;;;;;;;14.25;9.55;;;;;;;11.81;71.93;100760.28;7396681;19;20022;-65
2022/09/24 07:48:25;;;;;;;11.52;8.18;;;;;;;11.82;71.68;100760.22;7396702;19;20010;-66
2022/09/24 07:50:54;;;;;;;9.60;8.07;;;;;;;11.88;71.83;100764.47;7396613;19;20040;-65
2022/09/24 07:53:23;;;;;;;7.88;7.18;;;;;;;11.95;71.78;100765.16;7397430;19;20078;-66
2022/09/24 07:55:51;;;;;;;9.25;8.35;;;;;;;12.01;71.63;100765.88;7396860;19;20007;-66
2022/09/24 07:58:20;;;;;;;8.50;7.63;;;;;;;12.07;71.60;100764.88;7397091;19;20042;-67
2022/09/24 08:00:51;;;;;;;7.70;6.95;;;;;;;12.15;71.40;100759.41;7396816;19;20040;-66
2022/09/24 08:03:20;;;;;;;7.80;7.00;;;;;;;12.24;71.32;100760.91;7397114;19;20029;-65
2022/09/24 08:05:48;;;;;;;7.53;6.32;;;;;;;12.33;71.04;100758.00;7399259;19;20018;-65
2022/09/24 08:08:19;;;;;;;9.60;7.10;;;;;;;12.38;70.96;100762.25;7398148;19;20055;-65
2022/09/24 08:10:47;;;;;;;8.93;7.85;;;;;;;12.47;70.97;100760.22;7396704;19;20044;-67
2022/09/24 08:13:16;;;;;;;8.65;6.65;;;;;;;12.55;70.62;100769.63;7398283;19;20032;-69
2022/09/24 08:15:45;;;;;;;8.65;6.97;;;;;;;12.64;70.37;100770.28;7398712;19;20422;-66
2022/09/24 08:18:16;;;;;;;7.22;6.22;;;;;;;12.72;69.88;100770.88;7398498;19;20014;-66
2022/09/24 08:20:44;;;;;;;8.23;7.05;;;;;;;12.80;69.88;100766.25;7396068;19;20074;-67
2022/09/24 08:23:12;;;;;;;7.45;6.68;;;;;;;12.88;69.47;100769.50;7395735;19;20079;-67
2022/09/24 08:25:41;;;;;;;7.95;6.75;;;;;;;12.98;69.55;100758.72;7398864;19;20031;-67
2022/09/24 08:28:11;;;;;;;7.75;6.68;;;;;;;13.08;68.86;100756.63;7397493;19;20091;-66
2022/09/24 08:30:41;;;;;;;11.35;7.03;;;;;;;13.19;68.41;100759.78;7396516;19;20019;-66
2022/09/24 08:33:10;;;;;;;6.82;6.15;;;;;;;13.29;68.41;100761.19;7394587;19;20014;-68
2022/09/24 08:35:41;;;;;;;7.55;6.65;;;;;;;13.40;68.33;100755.59;7395454;19;20081;-66
2022/09/24 08:38:10;;;;;;;9.40;6.22;;;;;;;13.55;67.88;100759.50;7398646;19;20028;-66
2022/09/24 08:40:45;;;;;;;7.18;5.80;;;;;;;13.69;67.52;100764.31;7395571;19;20021;-66
2022/09/24 08:43:30;;;;;;;7.05;6.15;;;;;;;13.85;67.02;100754.94;7398284;19;20022;-66
2022/09/24 08:48:47;;;;;;;8.10;5.85;;;;;;;14.19;65.91;100760.78;7395546;19;20488;-65
2022/09/24 08:51:20;;;;;;;6.17;5.57;;;;;;;14.33;65.16;100755.88;7398742;19;20078;-65
2022/09/24 08:53:55;;;;;;;6.82;5.43;;;;;;;14.47;64.45;100750.06;7398171;19;20433;-65
2022/09/24 08:56:28;;;;;;;7.43;5.35;;;;;;;14.63;63.87;100757.41;7395449;19;20380;-66
2022/09/24 08:59:02;;;;;;;6.15;5.40;;;;;;;14.74;62.96;100749.94;7396613;19;20504;-65
2022/09/24 09:01:37;;;;;;;7.80;5.22;;;;;;;14.89;62.29;100748.50;7395577;19;20014;-66
2022/09/24 09:04:22;;;;;;;7.68;5.63;;;;;;;15.04;61.35;100752.31;7396876;19;20169;-66
2022/09/24 09:07:19;;;;;;;7.40;6.07;;;;;;;15.20;60.93;100752.53;7395440;19;20090;-67
2022/09/24 09:09:52;;;;;;;6.10;5.50;;;;;;;15.32;60.49;100752.03;7394343;19;20085;-67
2022/09/24 09:12:25;;;;;;;7.93;6.07;;;;;;;15.42;59.78;100752.50;7397444;19;20044;-66
2022/09/24 09:15:05;;;;;;;6.57;5.70;;;;;;;15.53;59.36;100759.13;7397351;19;20070;-66
2022/09/24 09:17:46;;;;;;;7.32;5.55;;;;;;;15.63;58.70;100755.16;7394885;19;20382;-66
2022/09/24 09:20:20;;;;;;;5.85;5.25;;;;;;;15.72;58.82;100754.78;7394365;19;20024;-70
2022/09/24 09:22:53;;;;;;;6.30;5.70;;;;;;;15.80;58.13;100749.16;7396541;19;20015;-66
2022/09/24 09:25:24;;;;;;;8.73;6.65;;;;;;;15.88;58.23;100751.50;7395771;19;20484;-66
2022/09/24 09:27:58;;;;;;;6.25;5.57;;;;;;;15.94;57.52;100748.59;7394225;19;20524;-70
2022/09/24 09:30:26;;;;;;;5.35;4.60;;;;;;;16.00;57.09;100752.72;7394510;19;20426;-69
2022/09/24 09:33:09;;;;;;;8.48;5.75;;;;;;;16.06;56.66;100750.69;7395527;19;20070;-70
2022/09/24 09:35:46;;;;;;;5.80;5.20;;;;;;;16.12;55.89;100746.91;7393866;19;20015;-65
2022/09/24 09:38:23;;;;;;;6.10;5.20;;;;;;;16.18;56.87;100743.97;7394047;19;20410;-67
2022/09/24 09:40:59;;;;;;;6.47;5.22;;;;;;;16.27;56.65;100743.53;7393779;19;20031;-67
2022/09/24 09:43:28;;;;;;;5.78;4.72;;;;;;;16.35;56.26;100743.22;7393389;19;20018;-66
2022/09/24 09:46:09;;;;;;;5.82;4.50;;;;;;;16.47;55.98;100747.09;7394145;19;20014;-67
2022/09/24 09:48:46;;;;;;;6.13;4.10;;;;;;;16.57;55.54;100740.41;7393365;19;20011;-67
2022/09/24 09:51:23;;;;;;;5.90;4.13;;;;;;;16.67;55.01;100734.69;7394667;19;20014;-67
2022/09/24 09:54:02;;;;;;;6.32;4.82;;;;;;;16.74;54.99;100744.94;7395535;19;20509;-67
2022/09/24 09:56:33;;;;;;;6.47;4.20;;;;;;;16.82;54.68;100741.91;7395896;19;20086;-69
2022/09/24 09:59:09;;;;;;;6.97;4.32;;;;;;;16.87;54.45;100745.22;7395432;19;20023;-69
2022/09/24 10:01:40;;;;;;;6.72;4.53;;;;;;;16.91;54.84;100741.50;7395156;19;20521;-67
2022/09/24 10:04:38;;;;;;;5.40;4.30;;;;;;;16.95;54.71;100736.91;7395619;19;20018;-67
2022/09/24 10:07:09;;;;;;;7.57;5.28;;;;;;;16.99;55.05;100738.47;7394067;19;20018;-66
2022/09/24 10:09:42;;;;;;;5.30;4.80;;;;;;;17.03;55.25;100740.03;7394312;19;20532;-66
2022/09/24 10:12:15;;;;;;;6.25;4.88;;;;;;;17.08;55.14;100732.72;7393783;19;20022;-68
2022/09/24 10:14:44;;;;;;;4.35;3.75;;;;;;;17.14;55.05;100738.66;7394853;19;20015;-68
2022/09/24 10:17:18;;;;;;;6.78;3.95;;;;;;;17.19;54.74;100731.34;7393246;19;20090;-67
2022/09/24 10:19:49;;;;;;;4.90;3.67;;;;;;;17.24;54.64;100737.28;7394258;19;20022;-67
2022/09/24 10:22:23;;;;;;;5.15;4.10;;;;;;;17.31;54.36;100733.34;7395109;19;20015;-67
2022/09/24 10:24:55;;;;;;;5.45;3.80;;;;;;;17.40;53.51;100737.34;7394732;19;20022;-67
2022/09/24 10:27:32;;;;;;;4.53;3.78;;;;;;;17.48;53.58;100735.19;7394618;19;20031;-66
2022/09/24 10:32:43;;;;;;;4.93;3.40;;;;;;;17.68;52.36;100738.59;7394024;19;20021;-68
2022/09/24 10:35:28;;;;;;;5.18;3.80;;;;;;;17.75;52.16;100732.03;7392155;19;20031;-66
2022/09/24 10:37:59;;;;;;;4.65;3.40;;;;;;;17.85;51.84;100729.75;7394685;19;20093;-67
2022/09/24 10:40:31;;;;;;;5.68;3.72;;;;;;;17.91;51.35;100730.28;7393483;19;20014;-67
2022/09/24 10:43:02;;;;;;;4.00;3.22;;;;;;;17.99;51.27;100731.72;7395358;19;20031;-71
2022/09/24 10:45:51;;;;;;;5.28;3.60;;;;;;;18.07;50.71;100738.34;7394351;19;20022;-67
2022/09/24 10:48:27;;;;;;;4.28;3.00;;;;;;;18.17;50.60;100732.53;7392015;19;20086;-67
2022/09/24 10:51:15;;;;;;;3.88;3.00;;;;;;;18.25;50.06;100732.97;7391721;19;20091;-66
2022/09/24 10:53:53;;;;;;;4.70;2.90;;;;;;;18.31;49.00;100730.00;7392471;19;20078;-65
2022/09/24 10:56:35;;;;;;;3.75;2.70;;;;;;;18.34;49.55;100729.81;7395956;19;20097;-66
2022/09/24 10:59:26;;;;;;;2.45;2.20;;;;;;;18.36;49.12;100727.94;7401195;19;20078;-65
2022/09/24 11:02:15;;;;;;;3.30;2.78;;;;;;;18.37;48.86;100718.16;7398368;19;20027;-65
2022/09/24 11:04:52;;;;;;;4.57;3.15;;;;;;;18.38;47.89;100725.19;7400808;19;20488;-67
2022/09/24 11:07:51;;;;;;;2.83;2.30;;;;;;;18.34;48.56;100724.50;7400997;19;20527;-66
2022/09/24 11:10:48;;;;;;;3.88;3.38;;;;;;;18.33;48.64;100717.47;7397475;19;20488;-66
2022/09/24 11:13:27;;;;;;;3.38;2.60;;;;;;;18.36;48.10;100721.75;7401991;19;20040;-66
2022/09/24 11:16:26;;;;;;;5.15;2.47;;;;;;;18.40;47.78;100718.84;7400291;19;20100;-66
2022/09/24 11:19:01;;;;;;;3.22;2.53;;;;;;;18.47;48.16;100722.03;7398449;19;20476;-69
2022/09/24 11:21:56;;;;;;;5.38;1.90;;;;;;;18.52;46.31;100719.13;7398519;19;20176;-68
2022/09/24 11:24:46;;;;;;;2.67;1.98;;;;;;;18.58;46.36;100725.88;7400051;19;20014;-67
2022/09/24 11:27:33;;;;;;;3.45;2.63;;;;;;;18.62;44.51;100722.13;7400703;19;20035;-67
2022/09/24 11:30:13;;;;;;;2.95;2.30;;;;;;;18.63;46.62;100724.69;7397409;19;20074;-66
2022/09/24 11:32:55;;;;;;;2.58;2.25;;;;;;;18.67;46.65;100714.75;7398134;19;20101;-66
2022/09/24 11:35:46;;;;;;;4.32;2.72;;;;;;;18.71;47.03;100717.13;7398007;19;20070;-67
2022/09/24 11:38:19;;;;;;;3.45;2.47;;;;;;;18.79;46.54;100718.50;7397648;19;20074;-65
2022/09/24 11:41:04;;;;;;;5.68;3.22;;;;;;;18.83;46.44;100720.03;7396886;19;20573;-67
2022/09/24 11:44:00;;;;;;;3.95;2.60;;;;;;;18.89;45.57;100714.38;7397306;19;20027;-66
2022/09/24 11:46:47;;;;;;;3.85;2.92;;;;;;;18.95;45.76;100715.88;7398676;19;20081;-66
2022/09/24 11:49:34;;;;;;;6.82;3.38;;;;;;;19.02;46.45;100720.75;7396281;19;20375;-66
2022/09/24 11:52:17;;;;;;;3.33;2.53;;;;;;;19.08;45.82;100714.22;7397769;19;20035;-66
2022/09/24 11:54:53;;;;;;;3.38;3.00;;;;;;;19.13;45.96;100712.16;7399283;19;20081;-66
2022/09/24 11:57:26;;;;;;;5.38;3.03;;;;;;;19.20;45.86;100716.16;7398937;19;20548;-67
2022/09/24 12:00:04;;;;;;;3.67;2.90;;;;;;;19.27;45.70;100716.69;7397542;19;20078;-67